Flight Track Log - Related Links

Times and Time Zones

All times are in EDT time to prevent confusion due to time zone crossing. See the USC250 flight status page for this flight to view local times or setup timezone preferences in your user account.

Time Position Orientation Groundspeed Altitude Reporting Facility
EDT Latitude Longitude Course Direction KTS MPH feet Rate Location/Type
Fri 06:53:01 PM 39.2000 -76.7000 322° Northwest 117 135 2,100  Level Potomac TRACON
Fri 06:54:07 PM 39.2333 -76.7333 322° Northwest 136 157 3,200 140 Climbing Potomac TRACON
Fri 06:56:00 PM 39.2932 -76.7932 322° Northwest  Level FlightAware Approximate
Fri 06:58:00 PM 39.3608 -76.8442 322° Northwest  Level FlightAware Approximate
Fri 07:03:00 PM 39.5286 -76.9717 355° North  Level FlightAware Approximate
Fri 07:04:00 PM 39.5686 -76.9761 355° North  Level FlightAware Approximate
Fri 07:05:00 PM 39.6087 -76.9806 355° North  Level FlightAware Approximate
Fri 07:06:00 PM 39.6488 -76.9850 355° North  Level FlightAware Approximate
Fri 07:07:00 PM 39.6888 -76.9895 355° North  Level FlightAware Approximate
Fri 07:08:00 PM 39.7289 -76.9939 355° North  Level FlightAware Approximate
Fri 07:09:00 PM 39.7689 -76.9984 355° North  Level FlightAware Approximate
Fri 07:10:00 PM 39.8087 -77.0051 351° North  Level FlightAware Approximate
Fri 07:11:00 PM 39.8484 -77.0130 351° North  Level FlightAware Approximate
Fri 07:12:00 PM 39.8884 -77.0167 North  Level FlightAware Approximate
Fri 07:13:00 PM 39.9286 -77.0167 North  Level FlightAware Approximate
Fri 07:14:00 PM 39.9687 -77.0193 354° North  Level FlightAware Approximate
Fri 07:15:00 PM 40.0087 -77.0250 354° North  Level FlightAware Approximate
Fri 07:16:00 PM 40.0486 -77.0307 354° North  Level FlightAware Approximate
Fri 07:17:00 PM 40.0886 -77.0365 354° North  Level FlightAware Approximate
Fri 07:18:00 PM 40.1285 -77.0422 354° North  Level FlightAware Approximate
Fri 07:19:00 PM 40.1685 -77.0479 354° North  Level FlightAware Approximate
Fri 07:20:00 PM 40.2084 -77.0536 354° North  Level FlightAware Approximate
Fri 07:20:53 PM 40.3403 -77.5056 313° West 191 220 6,000  Level New York Center
Fri 07:21:00 PM 40.2484 -77.0593 354° North  Level FlightAware Approximate
Fri 07:21:53 PM 40.3808 -77.5258 339° North 179 206 5,900  Level New York Center
Fri 07:22:00 PM 40.2883 -77.0650 354° North  Level FlightAware Approximate
Fri 07:23:00 PM 40.3195 -77.0939 313° West  Level FlightAware Approximate
Fri 07:23:00 PM 40.4288 -77.5586 332° Northwest  Level Estimated
Fri 07:23:55 PM 40.4750 -77.5569 332° Northwest 174 200 6,000  Level New York Center
Fri 07:24:00 PM 40.3470 -77.1323 313° West  Level FlightAware Approximate
Fri 07:24:53 PM 40.5283 -77.5703 349° North 174 200 6,000  Level New York Center
Fri 07:25:00 PM 40.3745 -77.1708 313° West  Level FlightAware Approximate
Fri 07:25:54 PM 40.5700 -77.5744 356° North 174 200 5,900  Level New York Center
Fri 07:26:55 PM 40.6219 -77.5769 358° North 174 200 5,900  Level New York Center
Fri 07:27:53 PM 40.6653 -77.5811 356° North 169 194 5,900  Level New York Center
Fri 07:28:53 PM 40.7089 -77.5856 356° North 169 194 5,900  Level New York Center
Fri 07:29:53 PM 40.7525 -77.5872 358° North 163 188 5,900  Level New York Center
Fri 07:30:55 PM 40.7964 -77.5886 359° North 157 181 5,900  Level New York Center
Fri 07:31:53 PM 40.8361 -77.5872 North 151 174 5,900 -50 Level New York Center
Fri 07:32:54 PM 40.8819 -77.5864 North 146 168 5,800 -397 Descending New York Center
Fri 07:33:54 PM 40.9294 -77.5911 356° North 146 168 5,100 -706 Descending New York Center
Fri 07:34:53 PM 40.9411 -77.6417 287° West 129 148 4,400 -454 Descending New York Center
Fri 07:35:53 PM 40.9314 -77.7011 258° West 128 147 4,200 -397 Descending New York Center
Fri 07:36:54 PM 40.9078 -77.7483 237° Southwest 140 161 3,600 -893 Descending New York Center
Fri 07:37:54 PM 40.8844 -77.7897 233° Southwest 150 173 2,400 -605 Descending New York Center
Fri 07:38:53 PM 40.8672 -77.8347 243° Southwest 150 173 2,400  Level New York Center
Fri 07:40:00 PM 40.8493 -77.8487 244° Southwest  Level Estimated

Login

Don't have an account? Register now (free) for customized features, flight alerts, and more!